Meteo Giornale » Osservazioni meteo Croazia » Pula Aerodrome

ore: 20:30 - Osservazioni Meteo Pula Aerodrome
Lat. 45° 54' N Lon. 13° 55' E Alt. 63 metri s.l.m.

nebbia Europe/Zagreb

2 °C

Banco di Nebbia Foschia

Temp. 24 Ore

1 °C

13 °C

Nord

3.7 Km/h

Dew point 2 °C

Umidità 100 %

Visibilità  2 Km

Il sole sorge alle ore 07:28

Il sole tramonta alle ore 17:06

Data e Ora Cielo e Fenomeni T °C DP °C Um. % Pres. hPa Vis. km Vento km/h
Oggi h: 20:30 nebbia Banco di Nebbia Foschia 2 2 100 1013 2 N 3.7
Oggi h: 20:00 nebbia Banco di Nebbia Foschia 3 2 93 1013 2 N 5.5
Oggi h: 19:30 nebbia Nebbia a Strati Foschia 5 4 93 1012 3 N 7.4
Oggi h: 19:00 nebbia Nebbia a Strati Foschia 5 5 100 1012 3 N 7.4
Oggi h: 18:30 foschia Foschia 5 4 93 1012 3 N 3.7
Oggi h: 18:00 nebbia Nebbia a Strati Foschia 6 5 93 1012 4 N 5.5
Oggi h: 17:30 foschia Foschia 6 5 93 1011 5 O/NO 9.3
Oggi h: 17:00 sereno Sereno 7 5 87 1011 7 O 9.3
Oggi h: 16:30 sereno Sereno 9 6 81 1010 10 O 16.7
Oggi h: 16:00 sereno Sereno 10 5 71 1010 10 O/SO 14.8
Oggi h: 15:30 sereno Sereno 11 4 61 1009 10 O 13
Oggi h: 15:00 sereno Sereno 12 4 57 1009 10 O 16.7
Oggi h: 14:30 sereno Sereno 12 4 57 1009 10 O 16.7
Oggi h: 14:00 sereno Sereno 12 3 54 1009 10 O 18.5
Oggi h: 13:30 sereno Sereno 12 3 54 1009 10 O 22.2
Oggi h: 12:30 sereno Sereno 13 3 50 1009 10 O 16.7
Oggi h: 12:00 sereno Sereno 12 3 54 1009 10 O 14.8
Oggi h: 11:30 sereno Sereno 12 7 71 1009 10 O/SO 7.4
Oggi h: 11:00 sereno Sereno 11 8 81 1009 9 N 3.7
Oggi h: 10:30 sereno Sereno 11 8 81 1009 7 E 7.4
Oggi h: 10:00 sereno Sereno 10 8 87 1009 6 N 5.5
Oggi h: 09:30 nebbia Nebbia a Strati 9 8 93 1009 6 N 5.5
Oggi h: 09:00 foschia Foschia Nebbia a Strati 6 6 100 1008 3 E 9.3
Oggi h: 08:30 foschia Foschia Nebbia a Strati 3 3 100 1008 3 E 9.3
Oggi h: 08:00 foschia Foschia 4 4 100 1008 3 E 11.1
Oggi h: 07:30 foschia Foschia 1 0 93 1008 3 E 11.1
Oggi h: 07:00 foschia Foschia 3 3 100 1008 3 N 5.5
Oggi h: 06:30 foschia Foschia 2 2 100 1008 2 E/NE 7.4
Oggi h: 06:00 nebbia NebbiaParziale Foschia 1 0 93 1007 0.7 N 5.5
Oggi h: 05:30 foschia Foschia 3 3 100 1007 5 N 5.5
Oggi h: 05:00 sereno Sereno 4 3 93 1008 6 E 7.4
Oggi h: 04:30 sereno Sereno 5 4 93 1007 6 N 3.7
Oggi h: 04:00 sereno Sereno 5 4 93 1007 6 NO 11.1
Oggi h: 03:30 sereno Sereno 6 5 93 1007 7 NO 13
Oggi h: 03:00 sereno Sereno 5 4 93 1007 8 O 16.7
Oggi h: 02:30 poco_nuvoloso Poco Nuvoloso 6 5 93 1007 10 O/NO 13
Oggi h: 02:00 poco_nuvoloso Poco Nuvoloso 6 4 86 1007 10 O 18.5
Oggi h: 01:30 poco_nuvoloso Poco Nuvoloso 6 5 93 1007 10 O/NO 14.8
Oggi h: 01:00 sereno Sereno 5 4 93 1007 10 O/NO 11.1
Oggi h: 00:30 poco_nuvoloso Poco Nuvoloso 7 6 93 1007 10 O 14.8
Oggi h: 00:00 poco_nuvoloso Poco Nuvoloso 6 5 93 1007 10 O/NO 11.1
Ieri h: 23:30 poco_nuvoloso Poco Nuvoloso 8 6 87 1006 10 O 11.1
Ieri h: 23:00 poco_nuvoloso Poco Nuvoloso 9 7 87 1006 10 O/NO 16.7
Ieri h: 22:30 poco_nuvoloso Poco Nuvoloso 7 5 87 1006 10 O 9.3
Ieri h: 22:00 poco_nuvoloso Poco Nuvoloso 7 5 87 1006 10 O 13
Ieri h: 21:30 poco_nuvoloso Poco Nuvoloso 8 6 87 1006 10 O 11.1
Ieri h: 21:00 poco_nuvoloso Poco Nuvoloso 9 7 87 1006 10 O 13